LiveATC.Net - Listen to live air traffic control over the Internet!


ICAO: KMNZ  IATA: MNZ   Airport: Hamilton Municipal Airport
City: Hamilton   State/Province: Texas
Country: United States   Continent: North America
KMNZ METAR Weather: KMNZ 281755Z AUTO 19012KT 7SM CLR 18/08 A2996 RMK AO2 T01780080 10178 20026
KMNZ ADS-B Flight Tracking (ADSBExchange)
KMNZ Flight Activity (FlightAware)
KMNZ Airport Info   (iFlightPlanner)
KMNZ VFR Sectional Chart   (iFlightPlanner) 
KMNZ IFR Low Altitude Chart   (iFlightPlanner) 
KMNZ IFR High Altitude Chart   (iFlightPlanner) 

KMNZ CTAF
Feed Status: UP   Listeners: 0
Listen in your browser - HTML5 player (in browser, HTML5)
Click here to listen with your own player (launches your MP3 player)
Archive Access: KMNZ CTAF
FacilityFrequency
Hamilton CTAF122.700

NOTICE

Unauthorized use prohibited. See LiveATC.net Terms of Service


Airport/ARTCC Code
Frequency Search
(e.g., 124.400, 128.75)
Site-wide search
 


Browse Feeds
Top 50 Feeds
HF Oceanic Feeds
Coverage Map
Bad Weather Areas

LiveATC FAQ
Offer LiveATC feed
Contact LiveATC.net
Press Inquiries

LiveATC on iPhone
LiveATC on Android

LiveATC Mobile
(Mobile browser)

ATC Audio Archives
Interesting Recordings

LiveATC Forums


Home Page
About LiveATC.net


Terms of Use
Privacy Policy

AIRMETs/SIGMETs

FAA Airport Status
NAS Status
Arrival Demand


Server Software By:
Icecast.org
Liquidsoap